Norwegian Star — C6FR3 — position and weather

sailwx.info

Track history (hours):
 
Tides and Currents Weather Stations Pressure Air Temp Water Temp Dewpoint Dewpoint Depression Visibility Wind Speed Wind Dir Waves Ship Positions

Norwegian Star

Operator: Norwegian Cruise Line

Last reported at 2020-Jan-28 15:00 UTC. Time now 2020-Jan-28 18:59 UTC.
Position S 47°06' W 061°06'.

Type: Passenger vessel. MMSI: 311082000.

Wind from 210 at 30 knots

Barometer 998.0 mb
Air temperature 14.0 ° C

Date/timePositionNaut miles runAvg speedWind from/ knotsBaromVisibWave heightAir tempDewpointWater temp
2020-Jan-28 15:00S 47°06' W 061°06'11519.1 210 / 30998.0 14.0
2020-Jan-28 09:00S 48°48' W 059°48'6215.6 030 / 30993.0 11.2 12.0
2020-Jan-28 05:00S 49°42' W 059°00'6616.4 050 / 35996.0 5.4 10.0
2020-Jan-28 01:00S 50°42' W 058°18'2019.5 020 / 241005.0 10.0
2020-Jan-28 00:00S 51°00' W 058°06'43 7.2 360 / 191005.0 10.0
2020-Jan-27 18:00S 51°42' W 057°48'0 0.0 070 / 181008.010.8 13.8 12.2
2020-Jan-27 17:00S 51°42' W 057°48'0 0.0 150 / 121007.010.8 11.0
2020-Jan-27 13:00S 51°42' W 057°48'67 9.6 180 / 191009.0 9.2
2020-Jan-27 06:00S 52°36' W 058°54'4113.5 200 / 301003.0 5.4 8.0
2020-Jan-27 03:00S 53°00' W 059°48'5317.5 210 / 241008.0 11.0
2020-Jan-27 00:00S 53°24' W 061°06'7318.3 210 / 301008.0 8.8
2020-Jan-26 20:00S 54°00' W 062°54'2727.4 200 / 201006.010.8 8.3
2020-Jan-26 19:00S 54°12' W 063°36'4221.2 220 / 261006.010.8 9.0 9.1
2020-Jan-26 17:00S 54°30' W 064°42'7318.2 240 / 321003.0 5.4 9.0
2020-Jan-26 13:00S 55°30' W 065°54'5025.0 230 / 301003.0 9.8 10.8
2020-Jan-26 11:00S 55°54' W 067°12'17 8.4 230 / 321000.0 8.7 11.2
2020-Jan-26 09:00S 55°54' W 066°42'4210.5 230 / 50998.0 8.5 13.0
2020-Jan-26 05:00S 55°12' W 066°48'27 9.1 270 / 35994.0 5.4 9.0
2020-Jan-26 02:00S 54°54' W 067°24'38 2.7 280 / 18999.0 11.0
2020-Jan-25 12:00S 54°54' W 068°30'4113.8 100 / 16999.0 9.0 10.3
2020-Jan-25 09:00S 54°54' W 069°42'3517.3 030 / 121000.0 10.0 10.0
2020-Jan-25 07:00S 54°54' W 070°42'37 6.2 330 / 15998.0 5.4 10.0
2020-Jan-25 01:00S 54°18' W 071°00'1212.0 310 / 21004.0
2020-Jan-25 00:00S 54°06' W 071°00'1818.3 350 / 51004.0 9.0
2020-Jan-24 23:00S 53°48' W 070°54'18 1.1 1002.0 10.0
2020-Jan-24 06:00S 53°30' W 070°48'64323216.0 310 / 10999.0 9.0
2020-Jan-24 04:00N 53°42' W 070°54'64563228.0 310 / 5999.0 9.0
2020-Jan-24 02:00S 53°54' W 071°18'19 9.3 280 / 22999.0 9.7
2020-Jan-24 00:00S 53°48' W 071°48'10114.4 310 / 231000.0 9.5
2020-Jan-23 17:00S 55°12' W 073°24'132132.4 310 / 19999.0 10.0
2020-Jan-23 16:00S 53°00' W 073°42'2524.8 310 / 20999.0 1.1 10.0
2020-Jan-23 15:00S 52°48' W 074°18'5714.2 320 / 241000.0 10.7
2020-Jan-23 11:00S 52°12' W 075°30'2412.1 310 / 30995.0 10.0 11.0
2020-Jan-23 09:00S 51°48' W 075°24'3812.7 310 / 41998.0 10.7 12.5
2020-Jan-23 06:00S 51°30' W 074°30'4 3.7 360 / 91005.0 11.0
2020-Jan-23 05:00S 51°30' W 074°24'25 8.4 360 / 91005.0 11.0
2020-Jan-23 02:00S 51°06' W 074°12'1212.0
2020-Jan-23 01:00S 50°54' W 074°12'15 5.0
2020-Jan-22 22:00S 50°54' W 073°48'8 7.6 110 / 71009.0 2.2 8.2 10.8
2020-Jan-22 21:00S 50°54' W 074°00'4120.4 080 / 131009.0 1.1 9.9 11.9
2020-Jan-22 19:00S 50°18' W 074°30'24122412.1 120 / 21010.0 10.9 12.5
2020-Jan-22 18:00S 10°06' W 074°48'23941197.1 110 / 171011.0 11.0
2020-Jan-22 16:00S 50°00' W 075°24'5016.7 110 / 51011.0 13.2
2020-Jan-22 13:00S 49°18' W 076°06'3030.3 050 / 151015.0 12.0 13.3
2020-Jan-22 12:00S 48°48' W 076°00'1818.4 030 / 151016.0 12.0 13.9
2020-Jan-22 11:00S 48°30' W 075°54'3636.0 040 / 121017.0 12.0 13.9
2020-Jan-22 10:00S 47°54' W 075°54'8421.0 020 / 101018.0 12.0 14.0
2020-Jan-22 06:00S 46°30' W 075°48'6722.2 360 / 51019.0 13.0
2020-Jan-22 03:00S 45°30' W 075°06'4715.6 270 / 41021.0 15.0 16.0
2020-Jan-22 00:00S 45°24' W 074°00'51 7.3 240 / 161021.0 16.4 14.0
2020-Jan-21 17:00S 45°30' W 072°48'0 0.0 270 / 81020.010.8 20.8 13.0
2020-Jan-21 16:00S 45°30' W 072°48'30 5.0 010 / 51020.0 20.0
2020-Jan-21 10:00S 45°24' W 073°30'6616.5 250 / 81022.0 14.1 13.7
2020-Jan-21 06:00S 44°18' W 073°24'9648.0 170 / 201021.0 15.0
2020-Jan-21 04:00S 45°54' W 073°24'19348.3 170 / 131021.0 15.0
2020-Jan-21 00:00S 42°42' W 072°54'4221.1 180 / 291020.0 15.0
2020-Jan-20 22:00S 42°00' W 073°00'30 6.1 190 / 191019.010.8 17.0 14.1
2020-Jan-20 17:00S 41°30' W 072°54'0 0.0 150 / 151019.0 16.0
2020-Jan-20 15:00S 41°30' W 072°54'44 4.4 150 / 241019.0 15.0 16.8
2020-Jan-20 05:00S 41°48' W 073°48'1110.8 210 / 101020.0 12.0
2020-Jan-20 04:00S 41°42' W 074°00'4221.1 190 / 131020.0 12.0
2020-Jan-20 02:00S 41°00' W 074°06'9613.7 180 / 261018.0 13.0
2020-Jan-19 19:00S 39°24' W 074°00'2412.2 200 / 351018.0 14.2 15.1
2020-Jan-19 17:00S 39°00' W 074°06'9619.3 190 / 241019.0 14.0
2020-Jan-19 12:00S 37°24' W 073°54'1918.6 180 / 361015.0 11.9 12.2
2020-Jan-19 11:00S 37°06' W 073°48'2814.0 170 / 441014.0 11.0 12.6
2020-Jan-19 09:00S 36°42' W 073°30'5719.1 180 / 311013.0 12.0 13.2
2020-Jan-19 06:00S 35°48' W 073°06'2625.9 180 / 151014.0 14.0
2020-Jan-19 05:00S 35°24' W 072°54'5919.8 180 / 141014.0 14.0
2020-Jan-19 02:00S 34°30' W 072°24'13868.9 190 / 91012.0 15.0 16.0
2020-Jan-19 00:00S 33°42' W 075°00'17024.3 260 / 31012.010.8 15.7 14.1
2020-Jan-18 17:00S 33°36' W 071°36'   240 / 41014.0 15.0
Track history (hours):
 
Tides and Currents Weather Stations Pressure Air Temp Water Temp Dewpoint Dewpoint Depression Visibility Wind Speed Wind Dir Waves Ship Positions

Norwegian Star

Operator: Norwegian Cruise Line

Last reported at 2020-Jan-28 15:00 UTC. Time now 2020-Jan-28 18:59 UTC.
Position S 47°06' W 061°06'.

Type: Passenger vessel. MMSI: 311082000.

Wind from 210 at 30 knots

Barometer 998.0 mb
Air temperature 14.0 ° C

Date/timePositionNaut miles runAvg speedWind from/ knotsBaromVisibWave heightAir tempDewpointWater temp
2020-Jan-28 15:00S 47°06' W 061°06'11519.1 210 / 30998.0 14.0
2020-Jan-28 09:00S 48°48' W 059°48'6215.6 030 / 30993.0 11.2 12.0
2020-Jan-28 05:00S 49°42' W 059°00'6616.4 050 / 35996.0 5.4 10.0
2020-Jan-28 01:00S 50°42' W 058°18'2019.5 020 / 241005.0 10.0
2020-Jan-28 00:00S 51°00' W 058°06'43 7.2 360 / 191005.0 10.0
2020-Jan-27 18:00S 51°42' W 057°48'0 0.0 070 / 181008.010.8 13.8 12.2
2020-Jan-27 17:00S 51°42' W 057°48'0 0.0 150 / 121007.010.8 11.0
2020-Jan-27 13:00S 51°42' W 057°48'67 9.6 180 / 191009.0 9.2
2020-Jan-27 06:00S 52°36' W 058°54'4113.5 200 / 301003.0 5.4 8.0
2020-Jan-27 03:00S 53°00' W 059°48'5317.5 210 / 241008.0 11.0
2020-Jan-27 00:00S 53°24' W 061°06'7318.3 210 / 301008.0 8.8
2020-Jan-26 20:00S 54°00' W 062°54'2727.4 200 / 201006.010.8 8.3
2020-Jan-26 19:00S 54°12' W 063°36'4221.2 220 / 261006.010.8 9.0 9.1
2020-Jan-26 17:00S 54°30' W 064°42'7318.2 240 / 321003.0 5.4 9.0
2020-Jan-26 13:00S 55°30' W 065°54'5025.0 230 / 301003.0 9.8 10.8
2020-Jan-26 11:00S 55°54' W 067°12'17 8.4 230 / 321000.0 8.7 11.2
2020-Jan-26 09:00S 55°54' W 066°42'4210.5 230 / 50998.0 8.5 13.0
2020-Jan-26 05:00S 55°12' W 066°48'27 9.1 270 / 35994.0 5.4 9.0
2020-Jan-26 02:00S 54°54' W 067°24'38 2.7 280 / 18999.0 11.0
2020-Jan-25 12:00S 54°54' W 068°30'4113.8 100 / 16999.0 9.0 10.3
2020-Jan-25 09:00S 54°54' W 069°42'3517.3 030 / 121000.0 10.0 10.0
2020-Jan-25 07:00S 54°54' W 070°42'37 6.2 330 / 15998.0 5.4 10.0
2020-Jan-25 01:00S 54°18' W 071°00'1212.0 310 / 21004.0
2020-Jan-25 00:00S 54°06' W 071°00'1818.3 350 / 51004.0 9.0
2020-Jan-24 23:00S 53°48' W 070°54'18 1.1 1002.0 10.0
2020-Jan-24 06:00S 53°30' W 070°48'64323216.0 310 / 10999.0 9.0
2020-Jan-24 04:00N 53°42' W 070°54'64563228.0 310 / 5999.0 9.0
2020-Jan-24 02:00S 53°54' W 071°18'19 9.3 280 / 22999.0 9.7
2020-Jan-24 00:00S 53°48' W 071°48'10114.4 310 / 231000.0 9.5
2020-Jan-23 17:00S 55°12' W 073°24'132132.4 310 / 19999.0 10.0
2020-Jan-23 16:00S 53°00' W 073°42'2524.8 310 / 20999.0 1.1 10.0
2020-Jan-23 15:00S 52°48' W 074°18'5714.2 320 / 241000.0 10.7
2020-Jan-23 11:00S 52°12' W 075°30'2412.1 310 / 30995.0 10.0 11.0
2020-Jan-23 09:00S 51°48' W 075°24'3812.7 310 / 41998.0 10.7 12.5
2020-Jan-23 06:00S 51°30' W 074°30'4 3.7 360 / 91005.0 11.0
2020-Jan-23 05:00S 51°30' W 074°24'25 8.4 360 / 91005.0 11.0
2020-Jan-23 02:00S 51°06' W 074°12'1212.0
2020-Jan-23 01:00S 50°54' W 074°12'15 5.0
2020-Jan-22 22:00S 50°54' W 073°48'8 7.6 110 / 71009.0 2.2 8.2 10.8
2020-Jan-22 21:00S 50°54' W 074°00'4120.4 080 / 131009.0 1.1 9.9 11.9
2020-Jan-22 19:00S 50°18' W 074°30'24122412.1 120 / 21010.0 10.9 12.5
2020-Jan-22 18:00S 10°06' W 074°48'23941197.1 110 / 171011.0 11.0
2020-Jan-22 16:00S 50°00' W 075°24'5016.7 110 / 51011.0 13.2
2020-Jan-22 13:00S 49°18' W 076°06'3030.3 050 / 151015.0 12.0 13.3
2020-Jan-22 12:00S 48°48' W 076°00'1818.4 030 / 151016.0 12.0 13.9
2020-Jan-22 11:00S 48°30' W 075°54'3636.0 040 / 121017.0 12.0 13.9
2020-Jan-22 10:00S 47°54' W 075°54'8421.0 020 / 101018.0 12.0 14.0
2020-Jan-22 06:00S 46°30' W 075°48'6722.2 360 / 51019.0 13.0
2020-Jan-22 03:00S 45°30' W 075°06'4715.6 270 / 41021.0 15.0 16.0
2020-Jan-22 00:00S 45°24' W 074°00'51 7.3 240 / 161021.0 16.4 14.0
2020-Jan-21 17:00S 45°30' W 072°48'0 0.0 270 / 81020.010.8 20.8 13.0
2020-Jan-21 16:00S 45°30' W 072°48'30 5.0 010 / 51020.0 20.0
2020-Jan-21 10:00S 45°24' W 073°30'6616.5 250 / 81022.0 14.1 13.7
2020-Jan-21 06:00S 44°18' W 073°24'9648.0 170 / 201021.0 15.0
2020-Jan-21 04:00S 45°54' W 073°24'19348.3 170 / 131021.0 15.0
2020-Jan-21 00:00S 42°42' W 072°54'4221.1 180 / 291020.0 15.0
2020-Jan-20 22:00S 42°00' W 073°00'30 6.1 190 / 191019.010.8 17.0 14.1
2020-Jan-20 17:00S 41°30' W 072°54'0 0.0 150 / 151019.0 16.0
2020-Jan-20 15:00S 41°30' W 072°54'44 4.4 150 / 241019.0 15.0 16.8
2020-Jan-20 05:00S 41°48' W 073°48'1110.8 210 / 101020.0 12.0
2020-Jan-20 04:00S 41°42' W 074°00'4221.1 190 / 131020.0 12.0
2020-Jan-20 02:00S 41°00' W 074°06'9613.7 180 / 261018.0 13.0
2020-Jan-19 19:00S 39°24' W 074°00'2412.2 200 / 351018.0 14.2 15.1
2020-Jan-19 17:00S 39°00' W 074°06'9619.3 190 / 241019.0 14.0
2020-Jan-19 12:00S 37°24' W 073°54'1918.6 180 / 361015.0 11.9 12.2
2020-Jan-19 11:00S 37°06' W 073°48'2814.0 170 / 441014.0 11.0 12.6
2020-Jan-19 09:00S 36°42' W 073°30'5719.1 180 / 311013.0 12.0 13.2
2020-Jan-19 06:00S 35°48' W 073°06'2625.9 180 / 151014.0 14.0
2020-Jan-19 05:00S 35°24' W 072°54'5919.8 180 / 141014.0 14.0
2020-Jan-19 02:00S 34°30' W 072°24'13868.9 190 / 91012.0 15.0 16.0
2020-Jan-19 00:00S 33°42' W 075°00'17024.3 260 / 31012.010.8 15.7 14.1
2020-Jan-18 17:00S 33°36' W 071°36'   240 / 41014.0 15.0

Dump ship's entire track history